Main page
METAR-TAF:

METAR-TAF

Airports :

Tangier Ibn Battouta Airport

Tangier, Morocco

latitude: 35-44N, longitude: 005-54W, elevation: 19 m

Current weather observation

The report was made 12 minutes ago, at 20:30 UTC
Wind 9 kt from the East
Temperature 16°C
Humidity 82%
Pressure 1019 hPa
Visibility 10 km or more
no clouds below 1500 m and no cumulonimbus

METAR: GMTT 092030Z 08009KT CAVOK 16/13 Q1019 NOSIG

Time: 21:42 (20:42 UTC)

Forecast

The report was made 3 hours and 42 minutes ago, at 17:00 UTC
Forecast valid from 09 at 18 UTC to 10 at 24 UTC
Wind 15 kt from the East
Visibility 10 km or more
no clouds below 1500 m and no cumulonimbus
Probability 40% :
Temporary
from 09 at 18 UTC to 10 at 02 UTC
Wind 17 kt from the East with gusts up to 27 kt
Probability 40% :
Temporary
from 10 at 12 UTC to 10 at 24 UTC
Wind 26 kt from the East with gusts up to 38 kt

TAF: GMTT 091700Z 0918/1024 08015KT CAVOK PROB40 TEMPO 0918/1002 09017G27KT PROB40 TEMPO 1012/1024 09026G38KT

Weather observations and forecasts of more than 4000 airports (METAR and TAF reports).

The available stations are represented by yellow and red dots on the map.

Hover mouse over dot to see the name of the station.

Then click to see weather observations and forecasts.

To change the map : click on the green buttons with a black cross to zoom in, on the green button with a dash to zoom out, or on the green arrows for adjacent maps.


METAR-TAF: